createdAt,value
2022-12-26T00:01:55.590Z,99890.28
2022-12-26T00:04:49.383Z,99896.78
2022-12-26T00:07:08.653Z,99895.41
2022-12-26T00:09:35.161Z,99904.34
2022-12-26T00:12:01.721Z,99907.53
2022-12-26T00:14:28.420Z,99901.63
2022-12-26T00:16:54.820Z,99899.16
2022-12-26T00:19:21.307Z,99896.72
2022-12-26T00:21:47.750Z,99898.88
2022-12-26T00:24:14.166Z,99891.84
2022-12-26T00:26:40.634Z,99897.25
2022-12-26T00:29:07.038Z,99897.25
2022-12-26T00:31:34.450Z,99902.06
2022-12-26T00:34:01.280Z,99896.13
2022-12-26T00:36:29.828Z,99904.44
2022-12-26T00:38:57.164Z,99872.88
2022-12-26T00:41:23.827Z,99871.53
2022-12-26T00:43:50.667Z,99871.25
2022-12-26T00:46:17.940Z,99866.09
2022-12-26T00:48:44.506Z,99862.59
2022-12-26T00:51:10.963Z,99861.25
2022-12-26T00:53:37.356Z,99851.78
2022-12-26T00:56:04.151Z,99861.53
2022-12-26T00:58:30.626Z,99871.50
2022-12-26T01:01:05.443Z,99862.59
2022-12-26T01:03:31.992Z,99870.69
2022-12-26T01:05:58.501Z,99870.13
2022-12-26T01:08:25.157Z,99883.63
2022-12-26T01:10:52.064Z,99874.72
2022-12-26T01:13:18.454Z,99892.56
2022-12-26T01:15:52.103Z,99869.31
2022-12-26T01:18:18.606Z,99870.34
2022-12-26T01:20:45.011Z,99875.22
2022-12-26T01:23:11.448Z,99877.69
2022-12-26T01:26:17.451Z,99880.63
2022-12-26T01:28:25.347Z,99877.38
2022-12-26T01:30:51.724Z,99885.75
2022-12-26T01:33:18.212Z,99878.69
2022-12-26T01:35:51.485Z,99876.81
2022-12-26T01:38:18.049Z,99886.00
2022-12-26T01:40:44.983Z,99884.63
2022-12-26T01:43:12.549Z,99896.75
2022-12-26T01:45:39.451Z,99900.25
2022-12-26T01:48:12.911Z,99893.47
2022-12-26T01:50:44.506Z,99899.72
2022-12-26T01:53:31.231Z,99896.44
2022-12-26T01:56:02.160Z,99914.78
2022-12-26T01:58:32.377Z,99908.03
2022-12-26T02:00:59.215Z,99899.09
2022-12-26T02:03:44.290Z,99905.06
2022-12-26T02:06:12.607Z,99909.91
2022-12-26T02:08:39.951Z,99903.94
2022-12-26T02:11:09.558Z,99913.66
2022-12-26T02:13:37.142Z,99916.63
2022-12-26T02:16:05.710Z,99930.38
2022-12-26T02:18:32.470Z,99921.47
2022-12-26T02:21:06.176Z,99924.44
2022-12-26T02:23:35.665Z,99915.75
2022-12-26T02:26:21.033Z,99923.34
2022-12-26T02:29:05.886Z,99921.22
2022-12-26T02:31:40.707Z,99929.59
2022-12-26T02:34:13.875Z,99920.16
2022-12-26T02:36:43.067Z,99919.56
2022-12-26T02:39:44.093Z,99919.56
2022-12-26T02:42:26.313Z,99921.75
2022-12-26T02:45:13.722Z,99922.84
2022-12-26T02:47:58.995Z,99923.66
2022-12-26T02:50:56.387Z,99911.53
2022-12-26T02:53:44.374Z,99916.13
2022-12-26T02:56:42.209Z,99908.03
2022-12-26T02:59:55.614Z,99924.22
2022-12-26T03:02:49.327Z,99911.53
2022-12-26T03:05:40.974Z,99915.28
2022-12-26T03:08:29.172Z,99923.41
2022-12-26T03:11:15.320Z,99926.09
2022-12-26T03:13:42.784Z,99933.66
2022-12-26T03:16:29.266Z,99926.94
2022-12-26T03:19:00.593Z,99932.03
2022-12-26T03:21:29.163Z,99909.91
2022-12-26T03:23:56.731Z,99918.84
2022-12-26T03:26:42.008Z,99923.34
2022-12-26T03:29:31.977Z,99916.41
2022-12-26T03:31:59.017Z,99920.19
2022-12-26T03:34:25.555Z,99915.28
2022-12-26T03:37:08.939Z,99932.34
2022-12-26T03:39:54.131Z,99930.75
2022-12-26T03:42:55.452Z,99927.22
2022-12-26T03:45:59.695Z,99923.47
2022-12-26T03:48:44.850Z,99915.34
2022-12-26T03:51:34.361Z,99921.00
2022-12-26T03:54:31.640Z,99925.59
2022-12-26T03:57:22.908Z,99926.41
2022-12-26T04:00:11.660Z,99926.41
2022-12-26T04:02:58.109Z,99931.81
2022-12-26T04:05:43.559Z,99946.38
2022-12-26T04:08:32.874Z,99949.91
2022-12-26T04:11:18.510Z,99954.22
2022-12-26T04:14:07.062Z,99955.56
2022-12-26T04:16:57.855Z,99955.28
2022-12-26T04:19:27.115Z,99954.22
2022-12-26T04:22:12.381Z,99957.50
2022-12-26T04:25:09.275Z,99953.75
2022-12-26T04:27:54.586Z,99955.34
2022-12-26T04:30:39.649Z,99963.47
2022-12-26T04:33:36.790Z,99954.28
2022-12-26T04:36:25.229Z,99957.00
2022-12-26T04:39:13.472Z,99958.63
2022-12-26T04:41:59.950Z,99957.81
2022-12-26T04:44:27.566Z,99965.09
2022-12-26T04:46:54.432Z,99960.75
2022-12-26T04:49:39.387Z,99959.69
2022-12-26T04:52:08.191Z,99963.47
2022-12-26T04:54:34.743Z,99966.16
2022-12-26T04:57:01.201Z,99955.88
2022-12-26T04:59:27.643Z,99959.63
2022-12-26T05:02:12.992Z,99956.94
2022-12-26T05:04:58.230Z,99955.56
2022-12-26T05:07:46.319Z,99944.22
2022-12-26T05:10:23.596Z,99947.72
2022-12-26T05:12:50.091Z,99949.03
2022-12-26T05:15:16.553Z,99955.28
2022-12-26T05:18:01.804Z,99955.75
2022-12-26T05:20:46.350Z,99953.06
2022-12-26T05:23:36.810Z,99974.91
2022-12-26T05:26:22.447Z,99974.59
2022-12-26T05:28:53.364Z,99977.88
2022-12-26T05:31:19.803Z,99981.63
2022-12-26T05:34:04.921Z,99978.38
2022-12-26T05:36:34.761Z,99988.09
2022-12-26T05:39:02.098Z,99996.72
2022-12-26T05:41:28.677Z,99983.22
2022-12-26T05:43:55.095Z,99985.66
2022-12-26T05:46:21.771Z,99992.16
2022-12-26T05:48:48.286Z,99994.00
2022-12-26T05:51:14.787Z,99994.00
2022-12-26T05:53:41.233Z,100002.94
2022-12-26T05:56:12.079Z,100007.50
2022-12-26T05:58:38.719Z,100000.47
2022-12-26T06:01:11.071Z,100004.25
2022-12-26T06:03:38.511Z,100013.16
2022-12-26T06:06:05.651Z,100012.38
2022-12-26T06:08:32.544Z,100018.56
2022-12-26T06:10:59.094Z,100015.06
2022-12-26T06:13:25.483Z,100020.47
2022-12-26T06:15:51.959Z,100006.34
2022-12-26T06:18:18.404Z,100007.16
2022-12-26T06:20:44.837Z,100004.72
2022-12-26T06:23:11.320Z,100015.53
2022-12-26T06:25:37.798Z,100003.66
2022-12-26T06:28:04.287Z,100007.41
2022-12-26T06:30:30.690Z,100018.22
2022-12-26T06:32:57.160Z,100014.72
2022-12-26T06:35:23.575Z,100000.97
2022-12-26T06:37:50.001Z,100017.97
2022-12-26T06:40:16.512Z,100000.97
2022-12-26T06:42:42.894Z,100003.44
2022-12-26T06:45:09.670Z,99995.06
2022-12-26T06:47:36.100Z,100011.06
2022-12-26T06:50:02.551Z,100024.31
2022-12-26T06:52:29.136Z,100018.91
2022-12-26T06:54:55.540Z,100019.44
2022-12-26T06:57:22.029Z,100019.44
2022-12-26T06:59:48.465Z,100028.59
2022-12-26T07:02:14.904Z,100027.81
2022-12-26T07:04:41.505Z,100025.91
2022-12-26T07:07:07.910Z,100025.34
2022-12-26T07:09:34.371Z,100008.00
2022-12-26T07:12:00.801Z,100022.34
2022-12-26T07:14:27.354Z,100011.28
2022-12-26T07:16:53.808Z,100024.19
2022-12-26T07:19:20.396Z,100030.44
2022-12-26T07:21:46.814Z,100036.69
2022-12-26T07:24:17.442Z,100040.41
2022-12-26T07:26:44.726Z,100049.56
2022-12-26T07:29:12.314Z,100057.66
2022-12-26T07:31:39.130Z,100067.41
2022-12-26T07:34:05.564Z,100074.47
2022-12-26T07:36:32.203Z,100076.09
2022-12-26T07:38:58.598Z,100088.28
2022-12-26T07:41:54.232Z,100080.50
2022-12-26T07:44:20.644Z,100093.03
2022-12-26T07:46:47.047Z,100090.13
2022-12-26T07:49:13.729Z,100089.38
2022-12-26T07:51:40.978Z,100081.91
2022-12-26T07:54:11.386Z,100071.41
2022-12-26T07:56:38.325Z,100097.16
2022-12-26T07:59:04.743Z,100110.16
2022-12-26T08:01:31.432Z,100110.22
2022-12-26T08:03:58.020Z,100119.22
2022-12-26T08:06:24.603Z,100103.88
2022-12-26T08:08:51.633Z,100096.66
2022-12-26T08:11:19.587Z,100087.75
2022-12-26T08:13:46.182Z,100091.03
2022-12-26T08:16:13.706Z,100098.09
2022-12-26T08:18:40.560Z,100102.91
2022-12-26T08:21:07.637Z,100098.84
2022-12-26T08:23:34.459Z,100103.69
2022-12-26T08:26:11.336Z,100101.72
2022-12-26T08:28:37.862Z,100106.59
2022-12-26T08:31:08.281Z,100102.50
2022-12-26T08:33:35.663Z,100104.88
2022-12-26T08:36:03.465Z,100107.53
2022-12-26T08:38:31.769Z,100115.09
2022-12-26T08:41:00.256Z,100117.22
2022-12-26T08:46:13.306Z,100118.22
2022-12-26T08:48:40.459Z,100117.91
2022-12-26T08:51:09.114Z,100106.78
2022-12-26T08:53:36.415Z,100100.00
2022-12-26T08:56:04.146Z,100111.06
2022-12-26T08:58:36.755Z,100122.38
2022-12-26T09:01:13.783Z,100120.16
2022-12-26T09:03:40.638Z,100128.75
2022-12-26T09:06:07.468Z,100127.97
2022-12-26T09:08:35.026Z,100127.63
2022-12-26T09:11:02.688Z,100127.03
2022-12-26T09:13:29.083Z,100122.72
2022-12-26T09:15:55.511Z,100128.63
2022-12-26T09:18:22.755Z,100150.22
2022-12-26T09:20:49.152Z,100145.31
2022-12-26T09:23:15.576Z,100139.94
2022-12-26T09:25:42.041Z,100147.44
2022-12-26T09:28:08.574Z,100146.88
2022-12-26T09:30:37.081Z,100149.00
2022-12-26T09:33:07.839Z,100155.50
2022-12-26T09:35:34.229Z,100168.16
2022-12-26T09:38:01.356Z,100145.13
2022-12-26T09:40:32.132Z,100137.03
2022-12-26T09:43:04.674Z,100138.94
2022-12-26T09:45:45.550Z,100130.56
2022-12-26T09:48:19.605Z,100133.28
2022-12-26T09:50:49.208Z,100138.94
2022-12-26T09:53:18.227Z,100140.31
2022-12-26T09:55:53.387Z,100153.81
2022-12-26T09:58:25.373Z,100150.91
2022-12-26T10:00:57.593Z,100149.84
2022-12-26T10:03:24.494Z,100141.50
2022-12-26T10:05:57.857Z,100141.50
2022-12-26T10:08:43.075Z,100149.59
2022-12-26T10:11:15.606Z,100158.25
2022-12-26T10:13:48.259Z,100156.63
2022-12-26T10:16:17.274Z,100146.38
2022-12-26T10:18:52.819Z,100145.31
2022-12-26T10:21:27.150Z,100139.34
2022-12-26T10:24:01.698Z,100140.72
2022-12-26T10:26:34.137Z,100143.22
2022-12-26T10:29:03.379Z,100125.91
2022-12-26T10:31:35.027Z,100128.63
2022-12-26T10:34:08.783Z,100123.22
2022-12-26T10:36:39.786Z,100128.13
2022-12-26T10:39:12.247Z,100125.44
2022-12-26T10:41:50.268Z,100138.94
2022-12-26T10:44:16.885Z,100140.56
2022-12-26T10:47:09.487Z,100142.19
2022-12-26T10:49:36.015Z,100148.09
2022-12-26T10:52:03.050Z,100137.84
2022-12-26T10:54:29.983Z,100120.59
2022-12-26T10:56:57.669Z,100130.25
2022-12-26T10:59:30.589Z,100115.19
2022-12-26T11:02:10.957Z,100114.66
2022-12-26T11:05:10.355Z,100115.25
2022-12-26T11:07:25.082Z,100127.44
2022-12-26T11:09:55.977Z,100129.38
2022-12-26T11:12:22.412Z,100120.72
2022-12-26T11:14:49.064Z,100126.75
2022-12-26T11:17:25.391Z,100108.16
2022-12-26T11:20:09.566Z,100116.09
2022-12-26T11:22:36.000Z,100119.38
2022-12-26T11:25:17.805Z,100111.81
2022-12-26T11:27:46.432Z,100115.91
2022-12-26T11:30:28.235Z,100117.66
2022-12-26T11:33:08.368Z,100101.19
2022-12-26T11:35:45.762Z,100106.66
2022-12-26T11:38:39.116Z,100112.88
2022-12-26T11:41:33.363Z,100095.84
2022-12-26T11:44:13.350Z,100091.56
2022-12-26T11:46:41.401Z,100098.34
2022-12-26T11:49:17.215Z,100103.44
2022-12-26T11:51:47.771Z,100090.44
2022-12-26T11:54:17.289Z,100096.66
2022-12-26T11:56:43.783Z,100094.19
2022-12-26T11:59:21.022Z,100091.13
2022-12-26T12:01:49.924Z,100096.72
2022-12-26T12:04:17.385Z,100082.75
2022-12-26T12:07:06.033Z,100089.19
2022-12-26T12:09:45.167Z,100107.03
2022-12-26T12:12:30.918Z,100121.56
2022-12-26T12:15:10.186Z,100106.41
2022-12-26T12:17:59.932Z,100103.16
2022-12-26T12:20:30.276Z,100110.69
2022-12-26T12:23:05.796Z,100098.22
2022-12-26T12:25:47.343Z,100107.44
2022-12-26T12:28:16.519Z,100101.19
2022-12-26T12:30:53.059Z,100096.16
2022-12-26T12:33:26.064Z,100106.78
2022-12-26T12:35:52.449Z,100092.75
2022-12-26T12:38:24.794Z,100088.50
2022-12-26T12:40:54.378Z,100084.47
2022-12-26T12:43:31.443Z,100105.78
2022-12-26T12:46:00.945Z,100101.19
2022-12-26T12:48:30.683Z,100103.09
2022-12-26T12:51:05.033Z,100108.16
2022-12-26T12:53:31.436Z,100092.81
2022-12-26T12:56:00.675Z,100095.53
2022-12-26T12:58:33.075Z,100083.34
2022-12-26T13:01:02.099Z,100082.34
2022-12-26T13:03:45.566Z,100066.44
2022-12-26T13:06:11.978Z,100092.44
2022-12-26T13:08:41.544Z,100068.69
2022-12-26T13:11:15.328Z,100076.59
2022-12-26T13:13:53.850Z,100088.28
2022-12-26T13:16:24.110Z,100075.34
2022-12-26T13:18:56.019Z,100079.63
2022-12-26T13:21:22.802Z,100083.13
2022-12-26T13:24:14.001Z,100085.03
2022-12-26T13:26:42.757Z,100084.78
2022-12-26T13:29:13.125Z,100087.72
2022-12-26T13:31:40.482Z,100103.75
2022-12-26T13:34:11.529Z,100100.69
2022-12-26T13:36:37.908Z,100090.75
2022-12-26T13:39:04.342Z,100089.66
2022-12-26T13:41:50.112Z,100111.81
2022-12-26T13:44:19.248Z,100089.38
2022-12-26T13:46:45.617Z,100089.94
2022-12-26T13:49:29.236Z,100076.31
2022-12-26T13:51:59.895Z,100078.13
2022-12-26T13:54:27.536Z,100078.13
2022-12-26T13:56:53.902Z,100089.13
2022-12-26T13:59:32.112Z,100079.63
2022-12-26T14:02:12.161Z,100088.81
2022-12-26T14:04:48.261Z,100083.91
2022-12-26T14:07:17.467Z,100072.63
2022-12-26T14:09:58.781Z,100083.63
2022-12-26T14:12:25.263Z,100070.97
2022-12-26T14:15:00.751Z,100082.59
2022-12-26T14:17:41.258Z,100103.88
2022-12-26T14:20:19.854Z,100092.50
2022-12-26T14:23:07.103Z,100098.44
2022-12-26T14:25:59.701Z,100093.03
2022-12-26T14:28:52.340Z,100102.72
2022-12-26T14:31:27.025Z,100158.91
2022-12-26T14:34:14.579Z,100164.88
2022-12-26T14:36:48.627Z,100163.97
2022-12-26T14:39:25.342Z,100161.19
2022-12-26T14:42:25.603Z,100182.94
2022-12-26T14:44:59.763Z,100195.09
2022-12-26T14:47:37.194Z,100177.88
2022-12-26T14:50:22.257Z,100191.47
2022-12-26T14:52:49.940Z,100188.00
2022-12-26T14:55:35.007Z,100195.34
2022-12-26T14:58:25.419Z,100197.84
2022-12-26T15:00:52.489Z,100205.53
2022-12-26T15:03:28.402Z,100208.81
2022-12-26T15:05:59.149Z,100223.53
2022-12-26T15:08:54.279Z,100224.72
2022-12-26T15:11:32.999Z,100227.53
2022-12-26T15:14:14.759Z,100235.75
2022-12-26T15:16:46.955Z,100235.63
2022-12-26T15:19:31.921Z,100229.88
2022-12-26T15:22:07.456Z,100233.31
2022-12-26T15:25:20.540Z,100230.50
2022-12-26T15:28:02.337Z,100252.50
2022-12-26T15:30:31.779Z,100271.84
2022-12-26T15:33:10.483Z,100264.25
2022-12-26T15:35:39.989Z,100253.91
2022-12-26T15:38:25.152Z,100261.69
2022-12-26T15:40:59.944Z,100262.38
2022-12-26T15:43:35.667Z,100268.34
2022-12-26T15:46:05.208Z,100275.50
2022-12-26T15:48:34.663Z,100285.53
2022-12-26T15:51:27.517Z,100292.06
2022-12-26T15:54:12.601Z,100306.94
2022-12-26T15:56:46.861Z,100304.56
2022-12-26T15:59:31.929Z,100316.53
2022-12-26T16:02:00.114Z,100323.84
2022-12-26T16:04:35.292Z,100330.59
2022-12-26T16:07:16.989Z,100345.16
2022-12-26T16:09:44.799Z,100350.06
2022-12-26T16:12:28.320Z,100355.53
2022-12-26T16:15:09.775Z,100357.44
2022-12-26T16:17:36.993Z,100360.22
2022-12-26T16:20:38.830Z,100373.75
2022-12-26T16:23:05.322Z,100382.94
2022-12-26T16:25:31.767Z,100388.19
2022-12-26T16:27:59.906Z,100389.66
2022-12-26T16:30:27.676Z,100390.56
2022-12-26T16:32:54.900Z,100391.22
2022-12-26T16:35:21.361Z,100401.38
2022-12-26T16:37:48.148Z,100410.09
2022-12-26T16:40:23.133Z,100412.19
2022-12-26T16:43:00.904Z,100412.63
2022-12-26T16:45:28.944Z,100423.81
2022-12-26T16:47:55.590Z,100433.16
2022-12-26T16:50:24.095Z,100436.88
2022-12-26T16:53:00.315Z,100426.34
